Time;durP1;ratioP1;P1;durP2;ratioP2;P2;SDS_P1;SDS_P2;PMS_P1;PMS_P2;Temp;Humidity;BMP_temperature;BMP_pressure;BME280_temperature;BME280_humidity;BME280_pressure;Samples;Min_cycle;Max_cycle;Signal;HPM_P1;HPM_P2
2023/08/08 03:40:00;;;;;;;2.05;1.70;;;;;10.90;94188.00;;;;7395554;19;20117;-74
2023/08/08 03:50:05;;;;;;;2.13;1.67;;;;;10.60;94192.00;;;;7394590;19;20611;-73
2023/08/08 04:00:36;;;;;;;3.70;1.83;;;;;10.30;94199.00;;;;7393977;19;20576;-74
2023/08/08 04:27:36;;;;;;;1.67;1.55;;;;;10.40;94199.00;;;;7402534;19;20135;-74
2023/08/08 04:30:13;;;;;;;1.93;1.70;;;;;10.10;94195.00;;;;7400372;19;20626;-71
2023/08/08 04:33:01;;;;;;;2.33;1.52;;;;;10.00;94203.00;;;;7400774;19;20615;-74
2023/08/08 04:35:36;;;;;;;2.60;1.57;;;;;10.00;94197.00;;;;7400737;19;20595;-76
2023/08/08 04:38:10;;;;;;;3.17;1.58;;;;;10.00;94200.00;;;;7401290;19;20129;-76
2023/08/08 04:40:37;;;;;;;2.17;1.58;;;;;9.90;94197.00;;;;7398411;19;20213;-76
2023/08/08 04:43:13;;;;;;;3.47;1.70;;;;;10.00;94198.00;;;;7401191;19;20152;-76
2023/08/08 04:45:46;;;;;;;2.33;1.57;;;;;10.00;94187.00;;;;7398614;19;20125;-75
2023/08/08 04:48:20;;;;;;;1.83;1.60;;;;;10.20;94201.00;;;;7402039;19;20133;-75
2023/08/08 04:50:48;;;;;;;3.23;1.87;;;;;10.30;94194.00;;;;7401404;19;20357;-75
2023/08/08 04:53:22;;;;;;;6.83;1.83;;;;;10.30;94203.00;;;;7399458;19;20163;-76
2023/08/08 04:55:50;;;;;;;4.88;1.60;;;;;10.40;94201.00;;;;7396980;19;20216;-76
2023/08/08 04:58:25;;;;;;;3.03;1.88;;;;;10.50;94206.00;;;;7399465;19;20136;-75
2023/08/08 05:00:52;;;;;;;2.38;1.90;;;;;10.60;94202.00;;;;7400384;19;20603;-76
2023/08/08 05:03:27;;;;;;;2.63;1.80;;;;;10.80;94204.00;;;;7394648;19;20178;-75
2023/08/08 05:05:55;;;;;;;2.77;1.87;;;;;10.80;94198.00;;;;7399843;19;20156;-75
2023/08/08 05:08:28;;;;;;;3.13;1.77;;;;;11.00;94201.00;;;;7399693;19;20220;-75
2023/08/08 05:10:56;;;;;;;4.32;2.05;;;;;11.10;94202.00;;;;7400986;19;20590;-75
2023/08/08 05:13:31;;;;;;;2.45;1.80;;;;;11.30;94194.00;;;;7398928;19;20183;-75
2023/08/08 05:16:06;;;;;;;4.78;2.03;;;;;11.40;94191.00;;;;7399639;19;20156;-76
2023/08/08 05:18:34;;;;;;;2.40;1.80;;;;;11.40;94192.00;;;;7399888;19;20241;-75
2023/08/08 05:21:02;;;;;;;3.97;1.90;;;;;11.50;94200.00;;;;7399101;19;20129;-76
2023/08/08 05:23:35;;;;;;;2.38;1.60;;;;;11.60;94201.00;;;;7397240;19;20120;-75
2023/08/08 05:26:03;;;;;;;4.20;1.80;;;;;11.90;94194.00;;;;7398911;19;20475;-76
2023/08/08 05:28:38;;;;;;;2.60;1.70;;;;;12.10;94194.00;;;;7399076;19;20132;-76
2023/08/08 05:31:05;;;;;;;3.22;1.50;;;;;12.10;94186.00;;;;7397658;19;20608;-76
2023/08/08 05:33:54;;;;;;;3.47;1.70;;;;;12.30;94190.00;;;;7398389;19;20630;-75
2023/08/08 05:36:29;;;;;;;3.67;1.67;;;;;12.40;94192.00;;;;7400961;19;20121;-76
2023/08/08 05:39:03;;;;;;;6.78;1.70;;;;;12.50;94186.00;;;;7380703;19;20508;-76
2023/08/08 05:41:37;;;;;;;3.17;1.70;;;;;12.60;94183.00;;;;7375366;19;20204;-75
2023/08/08 05:44:04;;;;;;;3.03;1.50;;;;;12.80;94177.00;;;;7381076;19;20603;-76
2023/08/08 05:46:39;;;;;;;2.30;1.75;;;;;13.00;94180.00;;;;7385952;19;20132;-77
2023/08/08 05:49:06;;;;;;;3.80;1.60;;;;;12.90;94173.00;;;;7386529;19;20627;-77
2023/08/08 05:51:41;;;;;;;6.55;1.60;;;;;13.10;94166.00;;;;7386770;19;20152;-75
2023/08/08 05:54:11;;;;;;;2.00;1.80;;;;;13.20;94159.00;;;;7386020;19;20253;-75
2023/08/08 05:56:46;;;;;;;2.55;1.65;;;;;13.20;94168.00;;;;7383365;19;20212;-75
2023/08/08 05:59:14;;;;;;;5.35;1.85;;;;;13.50;94170.00;;;;7387030;19;20139;-75
2023/08/08 06:01:48;;;;;;;2.63;1.63;;;;;13.60;94180.00;;;;7386070;19;20231;-76
2023/08/08 06:04:25;;;;;;;3.33;1.60;;;;;13.60;94178.00;;;;7385914;19;20156;-77
2023/08/08 06:07:00;;;;;;;2.75;1.70;;;;;13.80;94188.00;;;;7384377;19;20626;-75
2023/08/08 06:09:43;;;;;;;2.35;1.60;;;;;13.90;94187.00;;;;7386005;19;20149;-74
2023/08/08 06:12:23;;;;;;;2.33;1.50;;;;;14.10;94179.00;;;;7385427;19;21049;-75
2023/08/08 06:14:57;;;;;;;3.72;1.60;;;;;14.20;94184.00;;;;7383313;19;20140;-75
2023/08/08 06:17:32;;;;;;;2.78;1.40;;;;;14.30;94193.00;;;;7384086;19;20140;-75
2023/08/08 06:20:08;;;;;;;3.45;1.77;;;;;14.30;94188.00;;;;7384892;19;20160;-75
2023/08/08 06:22:44;;;;;;;5.63;1.70;;;;;14.50;94181.00;;;;7385922;19;20152;-75
2023/08/08 06:25:12;;;;;;;2.72;1.50;;;;;14.50;94188.00;;;;7385071;19;20137;-75
2023/08/08 06:27:48;;;;;;;3.75;1.48;;;;;14.70;94186.00;;;;7384407;19;20140;-75
2023/08/08 06:30:16;;;;;;;2.13;1.52;;;;;14.90;94191.00;;;;7384539;19;20466;-76
2023/08/08 06:33:11;;;;;;;2.08;1.60;;;;;14.80;94184.00;;;;7383899;19;20639;-76
2023/08/08 06:35:45;;;;;;;1.52;1.20;;;;;14.80;94182.00;;;;7382027;19;20149;-75
2023/08/08 06:38:19;;;;;;;3.33;1.55;;;;;14.90;94190.00;;;;7381959;19;20155;-75
2023/08/08 06:40:55;;;;;;;3.10;1.85;;;;;15.10;94183.00;;;;7386085;19;20132;-76
2023/08/08 06:43:23;;;;;;;2.88;1.25;;;;;15.20;94186.00;;;;7383364;19;20530;-75
2023/08/08 06:46:13;;;;;;;3.65;1.58;;;;;15.40;94185.00;;;;7384857;19;20539;-76
2023/08/08 06:48:56;;;;;;;3.97;1.45;;;;;15.40;94183.00;;;;7383132;19;20148;-76
2023/08/08 06:51:30;;;;;;;1.90;1.48;;;;;15.60;94184.00;;;;7384687;19;20144;-77
2023/08/08 06:53:58;;;;;;;2.58;1.45;;;;;15.70;94188.00;;;;7381703;19;20125;-75
2023/08/08 06:56:32;;;;;;;3.10;1.42;;;;;16.00;94194.00;;;;7382667;19;20608;-74
2023/08/08 06:59:08;;;;;;;2.22;1.55;;;;;16.00;94206.00;;;;7384377;19;20148;-75
2023/08/08 07:01:47;;;;;;;2.58;1.40;;;;;15.60;94188.00;;;;7380230;19;20175;-75
2023/08/08 07:04:22;;;;;;;2.35;1.40;;;;;15.50;94190.00;;;;7382561;19;20171;-74
2023/08/08 07:06:53;;;;;;;4.00;1.88;;;;;15.60;94190.00;;;;7383517;19;20587;-74
2023/08/08 07:09:27;;;;;;;2.42;1.58;;;;;15.80;94194.00;;;;7382363;19;20200;-74
2023/08/08 07:12:01;;;;;;;2.70;1.60;;;;;15.80;94189.00;;;;7381160;19;20589;-74
2023/08/08 07:14:36;;;;;;;3.35;1.25;;;;;16.10;94185.00;;;;7382272;19;20128;-74
2023/08/08 07:17:10;;;;;;;2.67;1.23;;;;;16.10;94200.00;;;;7383811;19;20607;-76
2023/08/08 07:19:37;;;;;;;3.67;1.67;;;;;15.90;94191.00;;;;7382193;19;20153;-75
2023/08/08 07:22:12;;;;;;;1.83;1.50;;;;;15.60;94187.00;;;;7383298;19;20135;-75
2023/08/08 07:24:46;;;;;;;3.05;1.38;;;;;15.80;94187.00;;;;7384601;19;20133;-75
2023/08/08 07:27:13;;;;;;;2.90;1.30;;;;;16.30;94186.00;;;;7383585;19;20132;-74
2023/08/08 07:29:48;;;;;;;1.55;1.33;;;;;16.30;94193.00;;;;7384160;19;20124;-75
2023/08/08 07:32:15;;;;;;;2.03;1.58;;;;;15.90;94189.00;;;;7384140;19;20149;-74
2023/08/08 07:34:56;;;;;;;4.97;1.30;;;;;16.00;94189.00;;;;7382393;19;20163;-74
2023/08/08 07:37:24;;;;;;;1.70;1.27;;;;;16.30;94183.00;;;;7381727;19;20148;-74
2023/08/08 07:39:58;;;;;;;1.83;1.20;;;;;16.40;94176.00;;;;7383309;19;20140;-74
2023/08/08 07:42:26;;;;;;;2.38;1.10;;;;;16.40;94177.00;;;;7379432;19;20165;-75
2023/08/08 07:44:59;;;;;;;3.25;1.20;;;;;16.50;94180.00;;;;7381059;19;20147;-75
2023/08/08 07:47:34;;;;;;;1.60;1.27;;;;;16.80;94180.00;;;;7382807;19;20128;-74
2023/08/08 07:50:09;;;;;;;1.88;1.40;;;;;17.20;94171.00;;;;7382741;19;20155;-75
2023/08/08 07:52:37;;;;;;;4.72;1.23;;;;;17.20;94160.00;;;;7380995;19;20170;-74
2023/08/08 07:55:12;;;;;;;1.33;1.00;;;;;17.40;94165.00;;;;7381571;19;20138;-74
2023/08/08 07:57:40;;;;;;;4.75;1.23;;;;;17.30;94168.00;;;;7382125;19;20164;-75
2023/08/08 08:00:18;;;;;;;2.10;1.15;;;;;17.40;94181.00;;;;7381296;19;20528;-74
2023/08/08 08:02:46;;;;;;;2.22;1.10;;;;;17.20;94169.00;;;;7382345;19;20190;-75
2023/08/08 08:05:22;;;;;;;1.65;1.20;;;;;17.60;94161.00;;;;7378719;19;20131;-74
2023/08/08 08:07:49;;;;;;;2.60;1.08;;;;;17.90;94162.00;;;;7379432;19;20135;-76
2023/08/08 08:10:24;;;;;;;1.40;1.05;;;;;17.80;94168.00;;;;7382484;19;20135;-74
2023/08/08 08:12:57;;;;;;;3.25;1.02;;;;;17.60;94173.00;;;;7381055;19;20524;-74
2023/08/08 08:15:32;;;;;;;1.27;1.17;;;;;17.70;94165.00;;;;7377090;19;21743;-74
2023/08/08 08:18:00;;;;;;;1.42;0.98;;;;;18.00;94173.00;;;;7380099;19;20129;-74
2023/08/08 08:20:34;;;;;;;1.27;1.00;;;;;18.00;94166.00;;;;7380820;19;20140;-77
2023/08/08 08:23:01;;;;;;;4.05;1.50;;;;;17.80;94169.00;;;;7380588;19;20153;-75
2023/08/08 08:25:36;;;;;;;3.78;1.40;;;;;17.70;94187.00;;;;7380653;19;20261;-77
2023/08/08 08:28:04;;;;;;;3.70;1.27;;;;;17.60;94170.00;;;;7383037;19;20133;-76
2023/08/08 08:30:38;;;;;;;1.48;1.38;;;;;17.60;94165.00;;;;7379589;19;20121;-75
2023/08/08 08:33:12;;;;;;;2.28;1.27;;;;;18.10;94160.00;;;;7380342;19;20585;-76
2023/08/08 08:35:53;;;;;;;2.78;1.35;;;;;18.10;94155.00;;;;7382246;19;20176;-74
2023/08/08 08:38:23;;;;;;;4.28;1.40;;;;;18.10;94163.00;;;;7382928;19;20157;-76
2023/08/08 08:40:58;;;;;;;2.47;1.30;;;;;18.40;94165.00;;;;7377007;19;20584;-75
2023/08/08 08:43:32;;;;;;;2.00;1.30;;;;;18.40;94171.00;;;;7381898;19;20141;-75
2023/08/08 08:46:08;;;;;;;2.38;1.40;;;;;18.40;94150.00;;;;7382663;19;20496;-75
2023/08/08 08:48:36;;;;;;;2.88;1.30;;;;;18.50;94161.00;;;;7380264;19;20494;-75
2023/08/08 08:51:11;;;;;;;2.30;1.27;;;;;18.10;94143.00;;;;7377852;19;20189;-77
2023/08/08 08:53:39;;;;;;;1.67;1.38;;;;;18.20;94155.00;;;;7380959;19;20153;-75
2023/08/08 08:56:08;;;;;;;2.10;1.17;;;;;18.30;94154.00;;;;7379614;19;20140;-77
2023/08/08 08:58:42;;;;;;;1.80;1.15;;;;;18.40;94160.00;;;;7381617;19;20148;-75
2023/08/08 09:01:11;;;;;;;4.65;1.30;;;;;18.60;94147.00;;;;7387676;19;20164;-75
2023/08/08 09:03:45;;;;;;;2.55;1.35;;;;;18.30;94158.00;;;;7386670;19;20199;-75
2023/08/08 09:06:23;;;;;;;2.75;1.30;;;;;18.20;94147.00;;;;7386199;19;20148;-76
2023/08/08 09:08:57;;;;;;;4.38;1.38;;;;;18.60;94149.00;;;;7388347;19;20534;-76
2023/08/08 09:11:50;;;;;;;2.95;0.95;;;;;18.80;94170.00;;;;7388403;19;20588;-76
2023/08/08 09:14:26;;;;;;;3.70;1.20;;;;;18.30;94169.00;;;;7388472;19;20169;-77
2023/08/08 09:16:55;;;;;;;2.05;1.10;;;;;18.10;94154.00;;;;7388921;19;20205;-76
2023/08/08 09:19:24;;;;;;;3.53;1.25;;;;;18.30;94166.00;;;;7388521;19;20129;-78
2023/08/08 09:22:06;;;;;;;5.00;1.48;;;;;17.80;94171.00;;;;7385234;19;20149;-78
2023/08/08 09:24:42;;;;;;;3.85;1.65;;;;;17.90;94153.00;;;;7387877;19;20655;-79
2023/08/08 09:27:17;;;;;;;3.05;1.38;;;;;17.70;94155.00;;;;7389278;19;20132;-78
2023/08/08 09:29:45;;;;;;;3.30;1.17;;;;;18.00;94146.00;;;;7388748;19;20159;-78
2023/08/08 09:32:19;;;;;;;1.27;1.10;;;;;17.90;94146.00;;;;7387351;19;20584;-80
2023/08/08 09:34:53;;;;;;;6.60;1.30;;;;;18.40;94147.00;;;;7387122;19;20208;-79
2023/08/08 09:37:34;;;;;;;2.08;1.33;;;;;19.00;94129.00;;;;7385179;19;20128;-78
2023/08/08 09:40:05;;;;;;;1.65;1.40;;;;;19.20;94126.00;;;;7386257;19;20151;-78
2023/08/08 09:42:41;;;;;;;1.77;1.10;;;;;18.00;94137.00;;;;7385633;19;20140;-78
2023/08/08 09:45:10;;;;;;;1.90;1.50;;;;;18.00;94130.00;;;;7386788;19;20298;-79
2023/08/08 09:47:44;;;;;;;3.13;1.40;;;;;18.50;94136.00;;;;7386333;19;20140;-77
2023/08/08 09:50:19;;;;;;;2.08;1.30;;;;;19.10;94141.00;;;;7387483;19;20604;-77
2023/08/08 09:52:54;;;;;;;4.05;1.30;;;;;19.20;94141.00;;;;7385793;19;20620;-76
2023/08/08 09:55:30;;;;;;;1.83;1.10;;;;;18.60;94162.00;;;;7385909;19;20148;-79
2023/08/08 09:58:05;;;;;;;3.53;1.50;;;;;17.90;94149.00;;;;7384459;19;20477;-78
2023/08/08 10:00:34;;;;;;;2.10;1.40;;;;;17.80;94146.00;;;;7386001;19;21178;-79
2023/08/08 10:03:08;;;;;;;4.35;1.50;;;;;17.90;94130.00;;;;7387586;19;20159;-79
2023/08/08 10:05:44;;;;;;;2.47;1.10;;;;;18.40;94143.00;;;;7387358;19;20129;-77
2023/08/08 10:08:20;;;;;;;1.85;1.20;;;;;18.70;94144.00;;;;7384127;19;20148;-78
2023/08/08 10:10:50;;;;;;;2.05;1.42;;;;;19.10;94136.00;;;;7383138;19;20137;-77
2023/08/08 10:13:26;;;;;;;1.45;1.20;;;;;19.10;94122.00;;;;7387324;19;20837;-77
2023/08/08 10:16:08;;;;;;;2.80;1.50;;;;;18.90;94128.00;;;;7385829;19;20168;-75
2023/08/08 10:18:42;;;;;;;2.80;1.50;;;;;19.00;94141.00;;;;7381809;19;20156;-76
2023/08/08 10:21:18;;;;;;;2.92;1.40;;;;;19.20;94130.00;;;;7384144;19;20132;-74
2023/08/08 10:24:07;;;;;;;3.55;1.52;;;;;18.80;94136.00;;;;7386916;19;20480;-77
2023/08/08 10:26:57;;;;;;;2.95;1.33;;;;;18.70;94144.00;;;;7385171;19;20148;-72
2023/08/08 10:29:33;;;;;;;3.42;1.30;;;;;19.00;94131.00;;;;7386431;19;20152;-76
2023/08/08 10:32:08;;;;;;;2.08;1.17;;;;;18.80;94136.00;;;;7383681;19;20152;-76
2023/08/08 10:34:55;;;;;;;3.45;1.30;;;;;19.20;94134.00;;;;7381716;19;20184;-72
2023/08/08 10:37:24;;;;;;;1.85;1.20;;;;;19.90;94120.00;;;;7374953;19;20128;-74
2023/08/08 10:39:59;;;;;;;4.03;1.20;;;;;20.20;94127.00;;;;7381538;19;20152;-73
2023/08/08 10:42:30;;;;;;;3.13;1.45;;;;;19.90;94131.00;;;;7382657;19;20708;-73
2023/08/08 10:45:05;;;;;;;2.05;1.30;;;;;19.50;94134.00;;;;7385204;19;20143;-73
2023/08/08 10:47:37;;;;;;;1.60;1.40;;;;;19.60;94155.00;;;;7385609;19;20479;-75
2023/08/08 10:50:13;;;;;;;1.95;1.30;;;;;19.90;94112.00;;;;7383176;19;20147;-74
2023/08/08 10:52:52;;;;;;;2.22;1.30;;;;;20.30;94124.00;;;;7383551;19;20153;-72
2023/08/08 10:55:32;;;;;;;2.22;1.33;;;;;20.10;94119.00;;;;7384124;19;20631;-79
2023/08/08 10:58:19;;;;;;;1.77;1.42;;;;;19.70;94126.00;;;;7385223;19;20144;-77
2023/08/08 11:00:48;;;;;;;2.53;1.40;;;;;20.40;94130.00;;;;7376230;19;21306;-74
2023/08/08 11:03:23;;;;;;;4.63;1.35;;;;;20.20;94120.00;;;;7379809;19;23453;-74
2023/08/08 11:05:54;;;;;;;3.60;1.30;;;;;20.60;94120.00;;;;7377609;19;20595;-74
2023/08/08 11:08:24;;;;;;;3.65;1.60;;;;;20.80;94125.00;;;;7378780;19;20857;-76
2023/08/08 11:10:59;;;;;;;6.03;1.70;;;;;21.40;94125.00;;;;7379953;19;20174;-76
2023/08/08 11:13:40;;;;;;;3.33;1.42;;;;;20.50;94128.00;;;;7378644;19;20151;-74
2023/08/08 11:16:16;;;;;;;2.22;1.40;;;;;20.60;94119.00;;;;7380683;19;20157;-74
2023/08/08 11:18:45;;;;;;;1.70;1.20;;;;;19.90;94118.00;;;;7380748;19;20177;-75
2023/08/08 11:21:13;;;;;;;1.85;1.35;;;;;20.90;94120.00;;;;7376394;19;20171;-75
2023/08/08 11:23:48;;;;;;;3.28;1.40;;;;;21.50;94120.00;;;;7376438;19;20619;-74
2023/08/08 11:26:18;;;;;;;2.17;1.30;;;;;21.60;94137.00;;;;7379402;19;20159;-77
2023/08/08 11:28:53;;;;;;;3.03;1.55;;;;;20.70;94123.00;;;;7380600;19;20160;-77
2023/08/08 11:31:21;;;;;;;1.45;1.25;;;;;20.10;94156.00;;;;7383796;19;20216;-76
2023/08/08 11:34:04;;;;;;;4.53;1.50;;;;;19.30;94167.00;;;;7381653;19;20199;-74
2023/08/08 11:36:36;;;;;;;3.30;1.48;;;;;18.40;94147.00;;;;7384082;19;20128;-78
2023/08/08 11:39:11;;;;;;;1.88;1.20;;;;;18.50;94171.00;;;;7384535;19;20184;-80
2023/08/08 11:41:40;;;;;;;1.88;1.30;;;;;19.00;94172.00;;;;7384073;19;20161;-79
2023/08/08 11:44:15;;;;;;;2.47;1.27;;;;;19.90;94132.00;;;;7385141;19;20134;-81
2023/08/08 11:46:50;;;;;;;2.70;1.40;;;;;20.60;94119.00;;;;7383702;19;20184;-85
2023/08/08 11:49:24;;;;;;;2.05;1.42;;;;;20.40;94113.00;;;;7386319;19;20983;-81
2023/08/08 11:51:59;;;;;;;2.22;1.40;;;;;20.20;94139.00;;;;7386055;19;20157;-80
2023/08/08 11:54:33;;;;;;;1.83;1.50;;;;;20.10;94112.00;;;;7385573;19;20615;-83
2023/08/08 11:57:02;;;;;;;1.55;1.25;;;;;20.90;94116.00;;;;7382147;19;20599;-81
2023/08/08 11:59:36;;;;;;;2.17;1.40;;;;;21.40;94094.00;;;;7384414;19;20460;-80
2023/08/08 12:02:04;;;;;;;1.75;1.20;;;;;22.10;94118.00;;;;7381718;19;20643;-79
2023/08/08 12:04:43;;;;;;;2.83;1.40;;;;;20.80;94133.00;;;;7383727;19;20151;-81
2023/08/08 12:07:10;;;;;;;2.72;1.33;;;;;20.30;94132.00;;;;7382294;19;20129;-79
2023/08/08 12:09:52;;;;;;;2.25;1.50;;;;;20.70;94125.00;;;;7384295;19;20144;-80
2023/08/08 12:12:27;;;;;;;3.22;1.63;;;;;20.10;94129.00;;;;7384050;19;20184;-80
2023/08/08 12:15:08;;;;;;;3.47;1.40;;;;;19.30;94147.00;;;;7384544;19;20196;-81
2023/08/08 12:17:43;;;;;;;6.80;1.58;;;;;19.20;94147.00;;;;7382528;19;20526;-79
2023/08/08 12:20:19;;;;;;;3.30;1.45;;;;;19.60;94125.00;;;;7385626;19;20517;-80
2023/08/08 12:22:52;;;;;;;2.15;1.48;;;;;19.80;94139.00;;;;7382076;19;20144;-77
2023/08/08 12:25:27;;;;;;;6.18;1.67;;;;;19.40;94147.00;;;;7383258;19;20544;-80
2023/08/08 12:28:04;;;;;;;2.10;1.60;;;;;18.80;94162.00;;;;7384082;19;20128;-80
2023/08/08 12:30:40;;;;;;;2.30;1.60;;;;;18.30;94166.00;;;;7385081;19;20129;-82
2023/08/08 12:33:09;;;;;;;6.03;1.52;;;;;18.00;94163.00;;;;7382842;19;20137;-80
2023/08/08 12:35:49;;;;;;;5.18;1.35;;;;;17.90;94138.00;;;;7393209;19;20152;-83
2023/08/08 12:38:24;;;;;;;3.28;1.40;;;;;19.00;94147.00;;;;7392885;19;20129;-80
2023/08/08 12:41:02;;;;;;;4.18;1.75;;;;;20.30;94122.00;;;;7390382;19;20143;-80
2023/08/08 12:43:31;;;;;;;2.10;1.70;;;;;20.80;94114.00;;;;7389735;19;20129;-80
2023/08/08 12:46:07;;;;;;;4.60;1.95;;;;;21.80;94112.00;;;;7390646;19;20623;-74
2023/08/08 12:48:37;;;;;;;2.42;1.25;;;;;22.10;94105.00;;;;7390440;19;20611;-76
2023/08/08 12:51:11;;;;;;;2.88;1.80;;;;;21.90;94102.00;;;;7387604;19;20128;-76
2023/08/08 12:53:50;;;;;;;5.47;2.15;;;;;21.90;94103.00;;;;7385672;19;20567;-74
2023/08/08 12:56:17;;;;;;;2.40;1.58;;;;;22.30;94102.00;;;;7391578;19;20133;-77
2023/08/08 12:58:51;;;;;;;10.65;2.60;;;;;21.80;94089.00;;;;7391018;19;20133;-75
2023/08/08 13:01:19;;;;;;;2.45;1.65;;;;;23.50;94126.00;;;;7387980;19;20168;-75
2023/08/08 13:03:57;;;;;;;1.80;1.30;;;;;23.00;94083.00;;;;7390988;19;20569;-76
2023/08/08 13:06:49;;;;;;;2.50;1.40;;;;;23.50;94087.00;;;;7390813;19;20143;-76
2023/08/08 13:09:23;;;;;;;1.85;1.30;;;;;22.80;94080.00;;;;7388772;19;20132;-77
2023/08/08 13:11:51;;;;;;;1.45;1.20;;;;;22.40;94098.00;;;;7386320;19;20184;-75
2023/08/08 13:14:19;;;;;;;1.77;1.40;;;;;22.50;94070.00;;;;7389577;19;20131;-74
2023/08/08 13:16:53;;;;;;;1.30;1.20;;;;;22.80;94063.00;;;;7389296;19;20631;-76
2023/08/08 13:19:27;;;;;;;2.35;1.60;;;;;23.40;94077.00;;;;7388126;19;20620;-77
2023/08/08 13:22:02;;;;;;;3.22;1.52;;;;;23.90;94076.00;;;;7385958;19;20175;-76
2023/08/08 13:24:30;;;;;;;11.52;2.70;;;;;23.50;94082.00;;;;7388351;19;20133;-74
2023/08/08 13:27:04;;;;;;;2.17;1.45;;;;;23.40;94084.00;;;;7392174;19;20477;-76
2023/08/08 13:29:32;;;;;;;3.22;1.13;;;;;24.00;94065.00;;;;7391334;19;20137;-77
2023/08/08 13:32:06;;;;;;;1.45;1.20;;;;;24.10;94073.00;;;;7391039;19;20615;-77
2023/08/08 13:34:47;;;;;;;2.05;1.40;;;;;23.10;94075.00;;;;7385914;19;20667;-75
2023/08/08 13:37:29;;;;;;;2.08;1.20;;;;;23.30;94102.00;;;;7389363;19;20149;-76
2023/08/08 13:40:02;;;;;;;2.95;1.27;;;;;23.30;94083.00;;;;7387965;19;20172;-76
2023/08/08 13:42:36;;;;;;;1.10;1.00;;;;;23.00;94112.00;;;;7389823;19;20156;-75
2023/08/08 13:45:05;;;;;;;2.20;1.40;;;;;22.00;94100.00;;;;7382283;19;21119;-76
2023/08/08 13:47:39;;;;;;;2.47;1.40;;;;;23.00;94071.00;;;;7386603;19;20624;-77
2023/08/08 13:50:14;;;;;;;2.10;1.30;;;;;22.40;94082.00;;;;7388151;19;20137;-76
2023/08/08 13:52:48;;;;;;;4.03;1.30;;;;;22.90;94072.00;;;;7386996;19;20144;-77
2023/08/08 13:55:16;;;;;;;2.08;1.40;;;;;23.00;94096.00;;;;7384915;19;20599;-75
2023/08/08 13:57:44;;;;;;;2.75;1.70;;;;;20.90;94122.00;;;;7388857;19;20137;-77
2023/08/08 14:00:18;;;;;;;5.50;1.35;;;;;19.80;94135.00;;;;7386132;19;20143;-76
2023/08/08 14:02:48;;;;;;;1.25;1.13;;;;;19.50;94140.00;;;;7385853;19;20160;-77
2023/08/08 14:05:24;;;;;;;3.72;1.50;;;;;19.20;94131.00;;;;7385829;19;20144;-77
2023/08/08 14:07:52;;;;;;;5.20;1.80;;;;;18.90;94129.00;;;;7387539;19;20148;-78
2023/08/08 14:10:25;;;;;;;3.58;1.45;;;;;18.10;94143.00;;;;7385085;19;20776;-75
2023/08/08 14:12:53;;;;;;;2.42;1.50;;;;;18.00;94144.00;;;;7387169;19;20152;-76
2023/08/08 14:15:28;;;;;;;1.48;1.10;;;;;17.70;94151.00;;;;7385452;19;20199;-76
2023/08/08 14:18:03;;;;;;;1.95;1.50;;;;;17.40;94147.00;;;;7384360;19;20155;-77
2023/08/08 14:20:38;;;;;;;3.58;1.40;;;;;17.30;94154.00;;;;7386308;19;20143;-77
2023/08/08 14:23:05;;;;;;;2.47;1.50;;;;;17.20;94149.00;;;;7387292;19;20599;-78
2023/08/08 14:25:41;;;;;;;1.48;1.38;;;;;17.50;94153.00;;;;7386315;19;20502;-78
2023/08/08 14:28:09;;;;;;;1.75;1.40;;;;;17.90;94147.00;;;;7386296;19;20201;-77
2023/08/08 14:30:42;;;;;;;5.18;1.40;;;;;19.10;94123.00;;;;7385596;19;20125;-77
2023/08/08 14:33:10;;;;;;;1.40;1.25;;;;;20.60;94116.00;;;;7386512;19;20129;-77
2023/08/08 14:35:52;;;;;;;4.05;1.83;;;;;21.10;94110.00;;;;7384212;19;20567;-78
2023/08/08 14:38:25;;;;;;;2.45;1.40;;;;;20.90;94126.00;;;;7387922;19;20128;-78
2023/08/08 14:40:58;;;;;;;4.03;1.50;;;;;20.50;94122.00;;;;7386221;19;20627;-79
2023/08/08 14:43:33;;;;;;;3.22;1.30;;;;;20.80;94127.00;;;;7393537;19;20148;-76
2023/08/08 14:46:07;;;;;;;2.33;1.35;;;;;20.90;94130.00;;;;7396487;19;20149;-77
2023/08/08 14:48:35;;;;;;;2.03;1.20;;;;;20.50;94123.00;;;;7402661;19;20142;-77
2023/08/08 14:51:10;;;;;;;6.55;1.52;;;;;19.50;94137.00;;;;7398475;19;20155;-78
2023/08/08 14:53:38;;;;;;;2.83;1.55;;;;;19.20;94144.00;;;;7396873;19;20608;-77
2023/08/08 14:56:13;;;;;;;2.72;1.40;;;;;18.60;94154.00;;;;7395383;19;20144;-78
2023/08/08 14:58:41;;;;;;;4.28;1.52;;;;;18.30;94157.00;;;;7396069;19;20125;-78
2023/08/08 15:01:22;;;;;;;3.05;1.75;;;;;18.00;94159.00;;;;7398346;19;21038;-77
2023/08/08 15:03:51;;;;;;;2.55;1.30;;;;;17.60;94150.00;;;;7396206;19;20140;-78
2023/08/08 15:06:25;;;;;;;1.90;1.30;;;;;17.80;94135.00;;;;7396138;19;20207;-83
2023/08/08 15:08:53;;;;;;;4.38;1.58;;;;;18.30;94138.00;;;;7397266;19;20125;-80
2023/08/08 15:11:27;;;;;;;1.60;1.50;;;;;18.60;94136.00;;;;7397090;19;20140;-80
2023/08/08 15:14:02;;;;;;;2.28;1.20;;;;;18.30;94137.00;;;;7397372;19;20192;-80
2023/08/08 15:16:36;;;;;;;2.63;1.60;;;;;18.40;94142.00;;;;7397954;19;20151;-80
2023/08/08 15:19:10;;;;;;;4.18;1.27;;;;;19.30;94137.00;;;;7394480;19;20149;-79
2023/08/08 15:21:38;;;;;;;3.63;1.42;;;;;19.20;94119.00;;;;7397227;19;20129;-81
2023/08/08 15:24:06;;;;;;;2.65;1.70;;;;;20.40;94127.00;;;;7396611;19;20446;-81
2023/08/08 15:26:40;;;;;;;2.13;1.35;;;;;20.70;94129.00;;;;7396898;19;20591;-78
2023/08/08 15:29:08;;;;;;;3.70;1.60;;;;;20.20;94130.00;;;;7395487;19;20452;-78
2023/08/08 15:31:42;;;;;;;2.58;1.27;;;;;21.10;94135.00;;;;7395241;19;20143;-79
2023/08/08 15:34:23;;;;;;;4.95;1.60;;;;;20.60;94124.00;;;;7393916;19;20163;-79
2023/08/08 15:36:50;;;;;;;1.80;1.33;;;;;21.40;94120.00;;;;7397467;19;20151;-79
2023/08/08 15:39:25;;;;;;;3.40;1.52;;;;;20.30;94137.00;;;;7394784;19;20140;-82
2023/08/08 15:41:53;;;;;;;2.05;1.50;;;;;20.00;94117.00;;;;7396181;19;20746;-78
2023/08/08 15:44:26;;;;;;;2.10;1.45;;;;;19.40;94114.00;;;;7397038;19;20141;-79
2023/08/08 15:47:00;;;;;;;4.05;1.50;;;;;20.50;94111.00;;;;7393295;19;20129;-84
2023/08/08 15:49:35;;;;;;;2.08;1.48;;;;;21.00;94114.00;;;;7393302;19;20144;-82
2023/08/08 15:52:02;;;;;;;2.22;1.60;;;;;21.30;94094.00;;;;7397584;19;20129;-77
2023/08/08 15:54:30;;;;;;;2.85;1.63;;;;;21.50;94117.00;;;;7395241;19;20137;-81
2023/08/08 15:57:04;;;;;;;2.58;1.30;;;;;20.50;94134.00;;;;7395643;19;20124;-84
2023/08/08 15:59:42;;;;;;;1.63;1.42;;;;;20.50;94121.00;;;;7396223;19;20591;-82
2023/08/08 16:02:10;;;;;;;2.92;1.35;;;;;21.30;94105.00;;;;7395537;19;20639;-83
2023/08/08 16:04:45;;;;;;;4.30;1.65;;;;;20.40;94143.00;;;;7396864;19;20643;-79
2023/08/08 16:07:17;;;;;;;3.97;1.52;;;;;19.30;94127.00;;;;7395908;19;20580;-78
2023/08/08 16:09:51;;;;;;;3.40;1.52;;;;;18.40;94141.00;;;;7400606;19;20144;-82
2023/08/08 16:12:19;;;;;;;3.08;1.50;;;;;18.30;94133.00;;;;7405557;19;20489;-79
2023/08/08 16:14:54;;;;;;;2.38;1.23;;;;;18.10;94140.00;;;;7404740;19;20480;-82
2023/08/08 16:17:21;;;;;;;4.50;1.75;;;;;18.60;94123.00;;;;7399942;19;20136;-76
2023/08/08 16:19:56;;;;;;;2.80;1.60;;;;;19.40;94111.00;;;;7403588;19;20161;-75
2023/08/08 16:22:23;;;;;;;1.50;1.27;;;;;20.10;94133.00;;;;7403088;19;20147;-75
2023/08/08 16:24:58;;;;;;;2.58;1.40;;;;;20.30;94103.00;;;;7401982;19;20148;-75
2023/08/08 16:31:10;;;;;;;2.28;1.58;;;;;19.00;94113.00;;;;7402194;19;20125;-75
2023/08/08 16:33:45;;;;;;;4.80;1.60;;;;;19.60;94110.00;;;;7402421;19;20195;-75
2023/08/08 16:36:25;;;;;;;2.72;1.20;;;;;20.00;94119.00;;;;7399972;19;20164;-75
2023/08/08 16:38:53;;;;;;;5.72;1.60;;;;;19.60;94112.00;;;;7401266;19;20555;-77
2023/08/08 16:41:44;;;;;;;2.67;1.40;;;;;19.60;94118.00;;;;7402762;19;20238;-75
2023/08/08 16:44:20;;;;;;;1.52;1.40;;;;;19.80;94135.00;;;;7401748;19;20133;-75
2023/08/08 16:46:48;;;;;;;3.17;1.63;;;;;19.00;94142.00;;;;7399997;19;20133;-76
2023/08/08 16:49:28;;;;;;;3.28;1.67;;;;;18.60;94144.00;;;;7402774;19;20157;-75
2023/08/08 16:52:03;;;;;;;2.03;1.58;;;;;18.40;94154.00;;;;7401893;19;20140;-74
2023/08/08 16:54:32;;;;;;;2.92;1.40;;;;;18.10;94152.00;;;;7401043;19;20121;-75
2023/08/08 16:57:07;;;;;;;4.40;1.50;;;;;17.40;94162.00;;;;7400815;19;20132;-75
2023/08/08 16:59:35;;;;;;;9.23;1.75;;;;;17.70;94154.00;;;;7401604;19;20128;-75
2023/08/08 17:02:09;;;;;;;1.95;1.60;;;;;18.00;94152.00;;;;7398940;19;20152;-76
2023/08/08 17:04:44;;;;;;;3.70;1.42;;;;;18.10;94146.00;;;;7401306;19;20248;-75
2023/08/08 17:07:18;;;;;;;3.47;1.58;;;;;18.30;94144.00;;;;7397929;19;20140;-76
2023/08/08 17:09:46;;;;;;;2.90;1.63;;;;;18.30;94153.00;;;;7399640;19;20137;-75
2023/08/08 17:12:20;;;;;;;2.85;1.60;;;;;18.20;94158.00;;;;7401418;19;20599;-74